Precept, Nebraska
Current Conditions -  °F | °C
As of 2:35 PM on Monday 22 Dec 2014 (Local Time) from KHDE Reporting Station
Scattered Clouds Scattered Clouds  
Wind Chill: 40°   Ceiling: Unl
Heat Index: 48°   Visibility: 10mi
Dew Point: 28°   Wind: 26mph
Humidity: 44%   Direction: 320°NW
Pressure: 29.49"   Gusts: 33mph
Location:  40.0893°N, 99.5735°W
Report Text: KHDE 222035Z AUTO 32023G29KT 10SM SCT060 09/M02 A2949 RMK AO2 T00911025
Loading
Personal Weather Stations






























Interactive Weather Map New forecast layout! Learn more

10-Day Weather Forecast

Advertisements
Track Severe Weather on mobile